Time;durP1;ratioP1;P1;durP2;ratioP2;P2;SDS_P1;SDS_P2;PMS_P1;PMS_P2;Temp;Humidity;BMP_temperature;BMP_pressure;BME280_temperature;BME280_humidity;BME280_pressure;Samples;Min_cycle;Max_cycle;Signal;HPM_P1;HPM_P2
2022/04/06 04:16:28;;;;;;;6.50;4.95;;;;;;;6.46;98.75;99855.69;5555837;32;276583;-87
2022/04/06 04:19:32;;;;;;;7.97;5.10;;;;;;;6.43;98.86;99872.47;5545645;32;33973;-88
2022/04/06 04:22:37;;;;;;;7.18;5.20;;;;;;;6.50;98.22;99865.19;5550549;32;33831;-87
2022/04/06 04:25:40;;;;;;;8.45;4.72;;;;;;;6.65;97.70;99870.72;5557300;32;34118;-87
2022/04/06 04:28:43;;;;;;;5.95;4.55;;;;;;;6.94;96.01;99864.22;5559773;32;35088;-87
2022/04/06 04:31:46;;;;;;;6.30;4.10;;;;;;;7.12;94.71;99867.88;5550156;32;34835;-88
2022/04/06 04:34:48;;;;;;;7.35;4.37;;;;;;;7.38;92.42;99867.62;5544529;32;33912;-88
2022/04/06 04:37:51;;;;;;;7.05;4.50;;;;;;;7.44;92.09;99869.16;5544131;32;34218;-88
2022/04/06 04:40:54;;;;;;;6.00;4.65;;;;;;;7.51;91.87;99871.44;5550515;32;33789;-88
2022/04/06 04:43:57;;;;;;;5.30;3.90;;;;;;;7.64;90.39;99870.87;5544340;32;33973;-87
2022/04/06 04:47:00;;;;;;;4.70;3.95;;;;;;;7.76;89.32;99867.69;5562473;32;33759;-89
2022/04/06 04:53:42;;;;;;;3.90;3.50;;;;;;;7.86;89.42;99877.81;4975202;29;20156;-89
2022/04/06 04:56:44;;;;;;;5.80;3.87;;;;;;;8.08;86.90;99867.94;5583550;32;35102;-89
2022/04/06 04:59:47;;;;;;;6.00;4.50;;;;;;;8.11;87.44;99880.16;5583213;31;33984;-89
2022/04/06 05:02:50;;;;;;;4.30;3.90;;;;;;;8.36;86.18;99886.91;5588198;32;33692;-89
2022/04/06 05:05:53;;;;;;;6.62;4.40;;;;;;;8.24;86.16;99883.06;5594190;31;34808;-89
2022/04/06 05:09:00;;;;;;;4.80;4.28;;;;;;;8.31;86.76;99888.91;5596094;31;34533;-88
2022/04/06 05:12:03;;;;;;;4.80;4.22;;;;;;;8.24;86.60;99893.63;5590054;31;34765;-89
2022/04/06 05:15:07;;;;;;;6.53;4.10;;;;;;;8.36;86.51;99895.69;5584131;32;34111;-87
2022/04/06 05:18:10;;;;;;;6.30;4.37;;;;;;;8.41;87.20;99894.59;5583376;32;33981;-88
2022/04/06 05:21:12;;;;;;;7.80;4.50;;;;;;;8.50;86.02;99900.31;5586180;32;35390;-88
2022/04/06 05:24:15;;;;;;;6.97;4.47;;;;;;;8.58;85.71;99905.25;5656637;26;33756;-88
2022/04/06 05:27:18;;;;;;;6.68;5.00;;;;;;;8.80;86.00;99906.81;5603147;31;34794;-89
2022/04/06 05:30:23;;;;;;;7.53;4.87;;;;;;;9.03;83.93;99907.47;5623498;31;34948;-88
2022/04/06 05:33:29;;;;;;;11.32;6.82;;;;;;;9.19;83.72;99914.63;5602846;26;34217;-89
2022/04/06 05:36:32;;;;;;;9.02;6.40;;;;;;;9.19;83.76;99907.53;5573255;32;34113;-89
2022/04/06 05:39:35;;;;;;;9.20;6.97;;;;;;;9.26;83.83;99910.72;5574752;32;34555;-88
2022/04/06 05:42:38;;;;;;;10.15;6.95;;;;;;;9.40;83.57;99915.31;5618417;26;34908;-89
2022/04/06 05:45:41;;;;;;;11.65;7.43;;;;;;;9.52;83.48;99914.66;5620825;26;34992;-89
2022/04/06 05:48:45;;;;;;;9.25;6.57;;;;;;;9.90;80.56;99916.19;5583788;26;35136;-88
2022/04/06 05:52:12;;;;;;;8.27;6.30;;;;;;;10.12;79.96;99922.97;5395374;30;20068;-89
2022/04/06 05:55:14;;;;;;;8.23;6.03;;;;;;;10.66;77.04;99921.75;5609559;26;33743;-89
2022/04/06 05:58:17;;;;;;;7.97;5.55;;;;;;;11.17;75.28;99925.91;5556474;32;33948;-89
2022/04/06 06:01:32;;;;;;;6.87;5.20;;;;;;;11.63;72.34;99929.38;5597144;26;34747;-90
2022/04/06 06:08:00;;;;;;;26.40;7.00;;;;;;;12.08;69.69;99922.16;5569072;32;33508;-89
2022/04/06 06:45:17;;;;;;;11.00;6.03;;;;;;;16.39;49.86;99924.47;5511003;32;32100;-90
2022/04/06 06:48:20;;;;;;;8.43;5.32;;;;;;;16.66;48.71;99917.81;5527187;32;34110;-87
2022/04/06 07:38:12;;;;;;;16.75;12.57;;;;;;;27.98;23.93;99932.94;2783879;26;20376;-87
2022/04/06 07:41:43;;;;;;;20.27;12.93;;;;;;;28.51;23.62;99926.06;5616649;26;34369;-87
2022/04/06 07:44:47;;;;;;;25.35;12.60;;;;;;;27.73;24.34;99924.44;5533932;32;34050;-90
2022/04/06 10:14:16;;;;;;;10.50;8.13;;;;;;;22.13;34.01;99837.12;1235405;27;20436;-89
2022/04/06 10:17:39;;;;;;;10.57;8.57;;;;;;;24.38;31.41;99832.09;5438932;32;34382;-90
2022/04/06 11:11:47;;;;;;;9.32;5.90;;;;;;;23.82;28.13;99766.22;5081723;30;20122;-87
2022/04/06 11:14:53;;;;;;;7.03;6.32;;;;;;;22.25;29.68;99770.97;5430378;32;33979;-88
2022/04/06 11:17:59;;;;;;;9.77;6.62;;;;;;;22.21;30.26;99764.19;5438171;32;34011;-88
2022/04/06 11:21:02;;;;;;;6.60;5.95;;;;;;;22.49;30.45;99761.19;5436952;32;34072;-89
2022/04/06 11:24:07;;;;;;;8.35;6.28;;;;;;;22.86;30.18;99745.44;5449668;27;33715;-87
2022/04/06 11:27:32;;;;;;;11.57;6.03;;;;;;;23.89;27.61;99747.41;5492966;27;34203;-87
2022/04/06 11:30:43;;;;;;;7.43;5.97;;;;;;;23.22;28.30;99736.88;5432897;32;34308;-89
2022/04/06 11:33:49;;;;;;;9.52;6.18;;;;;;;21.78;31.17;99743.53;5435789;32;34144;-89
2022/04/06 11:37:04;;;;;;;8.70;6.68;;;;;;;21.60;31.12;99732.00;5425596;32;34407;-88
2022/04/06 11:40:09;;;;;;;9.45;6.25;;;;;;;21.52;30.99;99728.25;5462149;27;34572;-86
2022/04/06 11:43:12;;;;;;;6.80;5.82;;;;;;;21.29;31.40;99719.94;5433148;32;33785;-88
2022/04/06 11:46:16;;;;;;;7.57;6.22;;;;;;;20.72;32.75;99721.31;5435181;32;33982;-88
2022/04/06 11:49:24;;;;;;;7.40;6.05;;;;;;;20.83;32.72;99715.62;5439774;32;34083;-90
2022/04/06 11:56:20;;;;;;;9.48;7.62;;;;;;;20.77;32.78;99701.94;4710651;27;20467;-88
2022/04/06 12:06:54;;;;;;;13.10;8.40;;;;;;;20.40;34.57;99693.12;4787712;30;20374;-90
2022/04/06 12:09:57;;;;;;;14.45;9.05;;;;;;;20.13;35.05;99687.72;5431586;32;34566;-89
2022/04/06 12:13:01;;;;;;;14.82;9.05;;;;;;;20.19;35.05;99676.31;5422401;32;35103;-90
2022/04/06 12:16:06;;;;;;;10.73;9.20;;;;;;;19.86;35.59;99664.41;5417518;32;34716;-88
2022/04/06 12:19:13;;;;;;;14.90;9.48;;;;;;;19.96;36.42;99669.72;5421357;32;34353;-89
2022/04/06 12:22:16;;;;;;;12.25;9.85;;;;;;;20.09;35.85;99651.34;5424345;32;34117;-89
2022/04/06 12:25:30;;;;;;;15.63;9.80;;;;;;;20.05;36.24;99640.03;5423652;32;34451;-89
2022/04/06 12:28:33;;;;;;;16.10;9.50;;;;;;;20.10;35.96;99636.03;5431883;32;35236;-88
2022/04/06 12:31:38;;;;;;;12.80;9.20;;;;;;;20.35;35.44;99634.34;5429233;32;33699;-89
2022/04/06 12:34:42;;;;;;;14.77;10.15;;;;;;;20.05;35.82;99626.56;5424374;32;33896;-88
2022/04/06 12:37:45;;;;;;;14.15;10.45;;;;;;;19.93;35.93;99625.09;5434756;32;33556;-88
2022/04/06 12:41:05;;;;;;;10.90;9.02;;;;;;;19.74;36.19;99624.28;5419168;32;34160;-87
2022/04/06 12:44:23;;;;;;;11.27;8.43;;;;;;;19.65;35.78;99620.66;5418596;32;33999;-92
2022/04/06 12:47:26;;;;;;;15.05;9.20;;;;;;;19.32;35.59;99614.97;5429515;32;34363;-88
2022/04/06 12:50:36;;;;;;;9.05;7.37;;;;;;;19.36;35.63;99599.38;5434053;32;33342;-86
2022/04/06 12:53:50;;;;;;;9.95;7.40;;;;;;;19.40;35.40;99600.75;5431421;32;34223;-89
2022/04/06 12:57:13;;;;;;;11.10;8.73;;;;;;;19.72;35.59;99593.12;5424753;32;33783;-88
2022/04/06 13:00:21;;;;;;;14.27;9.55;;;;;;;19.98;35.49;99590.53;5461521;27;35231;-88
2022/04/06 14:08:19;;;;;;;10.45;7.80;;;;;;;19.86;34.13;99471.47;5431642;32;34037;-91
2022/04/06 14:15:00;;;;;;;10.77;8.55;;;;;;;19.89;34.25;99457.72;3895582;30;20082;-90
2022/04/06 14:18:05;;;;;;;10.27;7.47;;;;;;;19.59;34.68;99459.87;5436772;32;34572;-90
2022/04/06 14:21:09;;;;;;;8.85;7.57;;;;;;;19.88;34.68;99455.19;5435313;32;33525;-90
2022/04/06 14:24:17;;;;;;;9.57;6.95;;;;;;;19.76;34.39;99446.53;5436304;32;33589;-90
2022/04/06 14:27:20;;;;;;;11.00;8.20;;;;;;;19.97;34.95;99442.66;5435971;32;34451;-88
2022/04/06 14:30:24;;;;;;;9.48;7.40;;;;;;;19.72;34.41;99443.31;5436453;32;34647;-88
2022/04/06 14:33:27;;;;;;;11.18;8.45;;;;;;;19.66;35.04;99434.03;5435068;32;34467;-88
2022/04/06 14:36:30;;;;;;;14.85;10.77;;;;;;;19.89;35.11;99430.81;5434768;32;34693;-88
2022/04/06 14:39:33;;;;;;;11.38;9.95;;;;;;;19.78;35.65;99428.38;5436893;32;34130;-88
2022/04/06 14:42:38;;;;;;;17.73;11.32;;;;;;;19.76;35.75;99422.34;5424711;32;33952;-88
2022/04/06 14:45:41;;;;;;;16.12;11.12;;;;;;;19.62;36.13;99413.00;5435590;32;34437;-88
2022/04/06 14:48:44;;;;;;;14.95;10.52;;;;;;;19.34;36.21;99413.13;5437595;32;33664;-86
2022/04/06 14:51:51;;;;;;;12.88;9.52;;;;;;;19.37;36.36;99405.59;5446668;32;33753;-86
2022/04/06 14:54:54;;;;;;;13.02;8.73;;;;;;;19.47;36.00;99394.72;5443027;32;34275;-87
2022/04/06 14:57:57;;;;;;;12.73;8.43;;;;;;;19.47;35.70;99393.91;5434539;32;33906;-88
2022/04/06 15:01:00;;;;;;;13.07;8.68;;;;;;;19.59;35.99;99389.94;5434830;32;34009;-87
2022/04/06 15:04:03;;;;;;;14.73;9.52;;;;;;;19.64;35.24;99384.09;5435303;32;33656;-87
2022/04/06 15:07:06;;;;;;;13.15;9.07;;;;;;;19.67;35.42;99368.47;5435737;32;34463;-88
2022/04/06 15:10:10;;;;;;;13.55;9.63;;;;;;;19.71;35.09;99363.59;5435182;32;34092;-87
2022/04/06 15:13:13;;;;;;;13.45;8.02;;;;;;;19.47;35.36;99361.63;5438536;32;33958;-89
2022/04/06 15:16:15;;;;;;;9.60;6.57;;;;;;;19.35;35.21;99356.53;5441597;32;33489;-88
2022/04/06 15:19:19;;;;;;;9.07;6.68;;;;;;;19.36;33.80;99355.50;5441464;32;34225;-88
2022/04/06 15:22:22;;;;;;;9.50;6.60;;;;;;;19.17;34.53;99353.91;5439620;32;33821;-87
2022/04/06 15:25:24;;;;;;;9.32;6.80;;;;;;;18.85;35.26;99352.59;5448178;32;34302;-88
2022/04/06 15:28:27;;;;;;;11.50;7.20;;;;;;;18.77;35.67;99352.53;5441627;32;35437;-87
2022/04/06 15:31:30;;;;;;;13.43;7.40;;;;;;;18.74;35.85;99345.63;5435895;32;33999;-87
